createdAt,value
2019-04-28T00:00:11.448Z,84.4358
2019-04-28T00:01:16.229Z,85.9052
2019-04-28T00:02:22.488Z,85.5833
2019-04-28T00:03:27.929Z,84.6967
2019-04-28T00:04:33.794Z,83.8361
2019-04-28T00:05:39.072Z,84.4770
2019-04-28T00:06:44.208Z,84.4724
2019-04-28T00:07:50.573Z,83.8163
2019-04-28T00:08:57.851Z,84.6174
2019-04-28T00:10:02.253Z,83.6973
2019-04-28T00:11:07.229Z,82.8916
2019-04-28T00:12:11.812Z,81.9959
2019-04-28T00:13:16.802Z,83.8804
2019-04-28T00:14:22.064Z,83.8178
2019-04-28T00:15:28.081Z,82.6963
2019-04-28T00:16:34.147Z,82.4247
2019-04-28T00:17:39.854Z,82.7512
2019-04-28T00:18:43.204Z,83.7537
2019-04-28T00:19:48.925Z,84.1093
2019-04-28T00:20:54.857Z,82.8000
2019-04-28T00:22:01.040Z,82.1424
2019-04-28T00:23:07.126Z,83.1586
2019-04-28T00:24:12.892Z,83.5019
2019-04-28T00:25:18.096Z,84.3702
2019-04-28T00:26:23.971Z,83.0472
2019-04-28T00:27:29.220Z,82.2889
2019-04-28T00:28:35.006Z,82.5025
2019-04-28T00:29:43.554Z,82.5177
2019-04-28T00:30:51.724Z,82.7405
2019-04-28T00:31:56.823Z,83.9811
2019-04-28T00:33:01.805Z,82.7131
2019-04-28T00:34:06.896Z,82.4720
2019-04-28T00:35:12.863Z,83.5599
2019-04-28T00:36:18.310Z,83.4180
2019-04-28T00:37:23.857Z,84.0818
2019-04-28T00:38:28.939Z,83.6896
2019-04-28T00:39:34.802Z,83.2990
2019-04-28T00:40:41.366Z,83.5965
2019-04-28T00:41:46.256Z,83.7629
2019-04-28T00:42:51.270Z,83.9460
2019-04-28T00:43:57.100Z,83.8819
2019-04-28T00:45:02.817Z,83.3921
2019-04-28T00:46:08.869Z,84.7089
2019-04-28T00:47:13.931Z,84.1871
2019-04-28T00:48:20.929Z,83.4607
2019-04-28T00:49:27.344Z,83.9460
2019-04-28T00:50:33.200Z,85.0843
2019-04-28T00:51:38.311Z,83.5554
2019-04-28T00:52:43.928Z,83.9857
2019-04-28T00:53:50.904Z,82.7222
2019-04-28T00:54:56.892Z,83.3051
2019-04-28T00:56:02.838Z,84.4907
2019-04-28T00:57:07.866Z,83.9170
2019-04-28T00:58:13.967Z,83.7568
2019-04-28T00:59:21.574Z,83.5737
2019-04-28T01:00:26.866Z,83.0121
2019-04-28T01:01:31.887Z,83.7766
2019-04-28T01:02:37.834Z,81.7441
2019-04-28T01:03:42.848Z,83.5416
2019-04-28T01:04:47.244Z,83.9323
2019-04-28T01:05:52.836Z,82.9252
2019-04-28T01:06:57.239Z,83.1769
2019-04-28T01:08:02.209Z,82.1607
2019-04-28T01:09:07.808Z,82.5437
2019-04-28T01:10:12.839Z,83.0472
2019-04-28T01:11:17.843Z,82.6535
2019-04-28T01:12:22.805Z,82.2873
2019-04-28T01:13:27.844Z,81.5015
2019-04-28T01:14:32.884Z,80.4898
2019-04-28T01:15:39.677Z,81.7380
2019-04-28T01:16:44.255Z,81.0941
2019-04-28T01:17:49.862Z,81.6159
2019-04-28T01:18:55.088Z,82.4109
2019-04-28T01:20:00.859Z,81.5015
2019-04-28T01:21:05.853Z,80.8469
2019-04-28T01:22:11.259Z,80.6409
2019-04-28T01:23:16.927Z,79.6460
2019-04-28T01:24:22.855Z,80.0183
2019-04-28T01:25:29.844Z,81.6800
2019-04-28T01:26:37.234Z,82.0676
2019-04-28T01:27:42.197Z,80.9873
2019-04-28T01:28:47.217Z,81.4649
2019-04-28T01:30:05.096Z,82.8611
2019-04-28T01:31:02.230Z,81.5702
2019-04-28T01:32:07.848Z,80.5127
2019-04-28T01:33:12.949Z,80.9796
2019-04-28T01:34:20.355Z,79.8947
2019-04-28T01:35:25.886Z,81.3306
2019-04-28T01:36:30.846Z,81.4557
2019-04-28T01:37:36.101Z,80.1511
2019-04-28T01:38:41.867Z,81.7288
2019-04-28T01:39:46.220Z,81.1124
2019-04-28T01:40:51.918Z,81.5518
2019-04-28T01:41:59.423Z,82.1866
2019-04-28T01:43:04.816Z,80.6317
2019-04-28T01:44:10.314Z,81.6739
2019-04-28T01:45:15.225Z,81.3764
2019-04-28T01:46:20.214Z,80.9735
2019-04-28T01:47:24.767Z,81.1902
2019-04-28T01:48:29.619Z,81.8433
2019-04-28T01:49:36.857Z,81.3718
2019-04-28T01:50:41.823Z,82.2248
2019-04-28T01:51:46.853Z,82.6917
2019-04-28T01:52:51.990Z,82.5223
2019-04-28T01:53:57.910Z,81.8219
2019-04-28T01:55:03.872Z,81.6892
2019-04-28T01:56:10.535Z,81.4862
2019-04-28T01:57:16.344Z,81.1353
2019-04-28T01:58:21.379Z,80.5127
2019-04-28T01:59:27.002Z,79.8169
2019-04-28T02:00:32.893Z,81.3535
2019-04-28T02:01:39.996Z,81.2802
2019-04-28T02:02:46.259Z,79.8352
2019-04-28T02:03:51.219Z,81.6800
2019-04-28T02:04:56.999Z,81.3138
2019-04-28T02:06:02.974Z,81.5457
2019-04-28T02:07:10.876Z,82.1836
2019-04-28T02:08:16.798Z,81.8860
2019-04-28T02:09:21.806Z,81.6373
2019-04-28T02:10:26.333Z,81.6251
2019-04-28T02:11:31.516Z,81.6693
2019-04-28T02:12:36.836Z,81.9821
2019-04-28T02:13:42.137Z,81.8540
2019-04-28T02:14:47.199Z,81.9120
2019-04-28T02:15:52.894Z,81.0147
2019-04-28T02:16:58.267Z,81.4328
2019-04-28T02:18:04.123Z,82.3789
2019-04-28T02:19:10.768Z,82.5666
2019-04-28T02:20:15.208Z,82.4567
2019-04-28T02:21:20.955Z,82.6505
2019-04-28T02:22:26.237Z,83.5554
2019-04-28T02:23:31.794Z,83.8224
2019-04-28T02:24:36.912Z,83.8438
2019-04-28T02:25:42.862Z,84.1321
2019-04-28T02:26:47.807Z,84.6922
2019-04-28T02:27:52.841Z,84.9439
2019-04-28T02:29:00.241Z,84.7105
2019-04-28T02:30:04.920Z,84.7135
2019-04-28T02:31:11.589Z,84.6632
2019-04-28T02:32:16.221Z,84.4297
2019-04-28T02:33:21.921Z,83.7476
2019-04-28T02:34:30.945Z,84.1093
2019-04-28T02:35:36.283Z,83.6118
2019-04-28T02:36:41.902Z,82.8656
2019-04-28T02:37:50.030Z,83.1632
2019-04-28T02:38:55.765Z,84.2756
2019-04-28T02:40:03.321Z,84.3442
2019-04-28T02:41:11.123Z,84.8234
2019-04-28T02:42:17.420Z,83.6667
2019-04-28T02:43:21.792Z,83.8819
2019-04-28T02:44:31.077Z,83.6210
2019-04-28T02:45:37.871Z,84.6998
2019-04-28T02:46:43.874Z,83.5752
2019-04-28T02:47:48.827Z,83.0472
2019-04-28T02:48:54.227Z,83.5340
2019-04-28T02:50:00.962Z,85.8183
2019-04-28T02:51:07.000Z,82.6215
2019-04-28T02:52:12.883Z,82.5711
2019-04-28T02:53:21.070Z,83.5965
2019-04-28T02:54:26.901Z,85.9190
2019-04-28T02:55:33.106Z,86.3798
2019-04-28T02:56:43.406Z,86.1295
2019-04-28T02:57:48.223Z,85.5711
2019-04-28T02:58:52.881Z,86.0838
2019-04-28T02:59:57.321Z,86.5034
2019-04-28T03:01:15.226Z,86.0868
2019-04-28T03:02:12.818Z,86.1646
2019-04-28T03:03:17.823Z,88.0140
2019-04-28T03:04:22.262Z,88.3116
2019-04-28T03:05:27.793Z,88.3162
2019-04-28T03:06:32.214Z,88.1712
2019-04-28T03:07:37.899Z,88.0964
2019-04-28T03:08:43.931Z,88.1987
2019-04-28T03:09:51.990Z,87.5700
2019-04-28T03:11:00.630Z,87.6249
2019-04-28T03:12:07.005Z,88.2704
2019-04-28T03:13:13.387Z,89.3095
2019-04-28T03:14:20.852Z,88.6091
2019-04-28T03:15:26.221Z,87.8462
2019-04-28T03:16:31.804Z,85.8366
2019-04-28T03:17:36.857Z,87.2679
2019-04-28T03:18:41.783Z,87.4846
2019-04-28T03:19:46.837Z,88.5649
2019-04-28T03:20:52.071Z,89.4652
2019-04-28T03:21:57.787Z,90.1884
2019-04-28T03:23:02.909Z,89.7139
2019-04-28T03:24:11.002Z,90.4219
2019-04-28T03:25:20.401Z,90.8248
2019-04-28T03:26:25.885Z,91.1131
2019-04-28T03:27:31.387Z,89.8009
2019-04-28T03:28:36.930Z,89.0547
2019-04-28T03:29:42.938Z,89.5796
2019-04-28T03:30:48.230Z,89.2454
2019-04-28T03:32:15.692Z,90.4356
2019-04-28T03:33:11.848Z,90.8949
2019-04-28T03:34:15.252Z,91.0307
2019-04-28T03:35:22.919Z,91.4519
2019-04-28T03:36:32.955Z,92.3461
2019-04-28T03:37:41.137Z,92.9030
2019-04-28T03:38:46.900Z,92.7977
2019-04-28T03:39:52.230Z,91.2551
2019-04-28T03:40:57.942Z,90.2953
2019-04-28T03:42:03.905Z,90.4692
2019-04-28T03:43:10.940Z,90.9346
2019-04-28T03:44:20.784Z,88.9708
2019-04-28T03:45:26.905Z,90.4677
2019-04-28T03:46:32.867Z,90.9804
2019-04-28T03:47:36.929Z,90.5013
2019-04-28T03:48:42.359Z,89.3751
2019-04-28T03:49:46.217Z,90.4860
2019-04-28T03:50:51.885Z,90.2678
2019-04-28T03:51:56.326Z,88.9479
2019-04-28T03:53:01.887Z,87.4067
2019-04-28T03:54:06.884Z,87.3518
2019-04-28T03:55:11.865Z,86.6834
2019-04-28T03:56:17.916Z,88.4596
2019-04-28T03:57:23.894Z,87.3518
2019-04-28T03:58:31.054Z,88.1422
2019-04-28T03:59:36.872Z,88.6915
2019-04-28T04:00:41.852Z,89.4301
2019-04-28T04:01:56.725Z,88.2490
2019-04-28T04:03:00.596Z,89.4514
2019-04-28T04:04:07.134Z,90.3914
2019-04-28T04:05:12.933Z,91.1696
2019-04-28T04:06:18.746Z,91.2459
2019-04-28T04:07:23.220Z,91.4214
2019-04-28T04:08:30.954Z,91.9646
2019-04-28T04:09:36.836Z,91.8654
2019-04-28T04:10:40.487Z,91.8685
2019-04-28T04:11:45.967Z,91.2093
2019-04-28T04:12:51.962Z,91.1589
2019-04-28T04:13:57.912Z,92.5750
2019-04-28T04:15:04.150Z,93.8979
2019-04-28T04:16:10.375Z,94.6853
2019-04-28T04:17:15.807Z,95.2194
2019-04-28T04:18:21.226Z,95.5550
2019-04-28T04:19:26.231Z,95.7412
2019-04-28T04:20:31.883Z,95.9167
2019-04-28T04:21:40.483Z,96.0403
2019-04-28T04:22:45.865Z,96.2417
2019-04-28T04:23:51.111Z,96.4248
2019-04-28T04:24:56.235Z,96.6079
2019-04-28T04:26:02.251Z,96.7849
2019-04-28T04:27:10.543Z,96.9589
2019-04-28T04:28:15.837Z,97.1252
2019-04-28T04:29:21.714Z,97.2519
2019-04-28T04:30:26.902Z,97.4182
2019-04-28T04:31:32.010Z,97.5051
2019-04-28T04:32:40.893Z,97.6150
2019-04-28T04:33:46.854Z,97.7096
2019-04-28T04:34:51.904Z,97.7935
2019-04-28T04:35:57.939Z,97.5677
2019-04-28T04:37:03.201Z,95.6359
2019-04-28T04:38:10.463Z,93.4905
2019-04-28T04:39:16.079Z,92.4086
2019-04-28T04:40:21.272Z,91.2886
2019-04-28T04:41:27.002Z,92.6848
2019-04-28T04:42:32.908Z,93.5210
2019-04-28T04:43:41.182Z,93.9483
2019-04-28T04:44:46.230Z,95.3216
2019-04-28T04:45:51.208Z,95.6329
2019-04-28T04:46:56.863Z,95.0546
2019-04-28T04:48:01.429Z,95.3429
2019-04-28T04:49:06.817Z,95.8694
2019-04-28T04:50:13.241Z,96.1410
2019-04-28T04:51:21.286Z,96.2814
2019-04-28T04:52:26.808Z,96.2127
2019-04-28T04:53:31.877Z,96.3378
2019-04-28T04:54:37.017Z,96.0616
2019-04-28T04:55:43.034Z,95.6359
2019-04-28T04:56:50.135Z,95.0546
2019-04-28T04:57:55.835Z,94.1711
2019-04-28T04:59:02.733Z,93.8643
2019-04-28T05:00:10.053Z,93.2509
2019-04-28T05:01:15.220Z,93.3242
2019-04-28T05:02:29.364Z,93.1182
2019-04-28T05:03:31.791Z,92.8222
2019-04-28T05:04:36.796Z,92.7260
2019-04-28T05:05:41.787Z,92.6757
2019-04-28T05:06:46.800Z,92.7581
2019-04-28T05:07:51.869Z,92.8038
2019-04-28T05:08:56.204Z,93.2326
2019-04-28T05:10:01.826Z,92.0394
2019-04-28T05:11:06.864Z,92.0882
2019-04-28T05:12:12.257Z,92.1355
2019-04-28T05:13:17.875Z,92.2179
2019-04-28T05:14:23.955Z,92.2042
2019-04-28T05:15:30.411Z,91.3603
2019-04-28T05:16:35.852Z,92.2530
2019-04-28T05:17:40.320Z,92.3583
2019-04-28T05:18:45.920Z,92.4102
2019-04-28T05:19:51.949Z,92.2637
2019-04-28T05:20:57.227Z,92.5978
2019-04-28T05:22:02.201Z,91.5404
2019-04-28T05:23:09.588Z,91.3436
2019-04-28T05:24:15.959Z,91.4885
2019-04-28T05:25:24.585Z,92.4285
2019-04-28T05:26:34.082Z,92.6467
2019-04-28T05:27:40.026Z,92.8069
2019-04-28T05:28:51.410Z,92.6619
2019-04-28T05:29:56.822Z,92.7794
2019-04-28T05:31:05.892Z,93.0465
2019-04-28T05:32:10.968Z,92.8664
2019-04-28T05:33:17.120Z,92.6604
2019-04-28T05:34:24.102Z,93.5134
2019-04-28T05:35:29.464Z,93.5958
2019-04-28T05:36:40.941Z,94.2138
2019-04-28T05:37:45.275Z,93.3349
2019-04-28T05:38:50.826Z,93.1334
2019-04-28T05:39:55.804Z,93.3577
2019-04-28T05:41:02.820Z,94.0261
2019-04-28T05:42:09.706Z,94.1161
2019-04-28T05:43:16.984Z,93.6767
2019-04-28T05:44:22.853Z,94.1176
2019-04-28T05:45:27.918Z,94.4549
2019-04-28T05:46:33.878Z,94.7036
2019-04-28T05:47:40.793Z,94.6654
2019-04-28T05:48:49.483Z,94.9538
2019-04-28T05:49:56.796Z,94.5830
2019-04-28T05:51:01.924Z,93.7514
2019-04-28T05:52:06.288Z,93.2479
2019-04-28T05:53:11.848Z,94.1253
2019-04-28T05:54:16.828Z,94.2580
2019-04-28T05:55:21.477Z,91.5816
2019-04-28T05:56:26.853Z,92.3461
2019-04-28T05:57:31.919Z,92.0119
2019-04-28T05:58:40.097Z,92.5734
2019-04-28T05:59:45.208Z,93.1731
2019-04-28T06:00:50.856Z,93.6446
2019-04-28T06:01:55.799Z,93.4890
2019-04-28T06:03:00.931Z,93.9284
2019-04-28T06:04:06.374Z,94.2367
2019-04-28T06:05:12.199Z,94.0749
2019-04-28T06:06:17.908Z,94.2534
2019-04-28T06:07:23.884Z,94.3679
2019-04-28T06:08:30.347Z,95.0225
2019-04-28T06:09:35.819Z,95.3811
2019-04-28T06:10:40.940Z,95.4635
2019-04-28T06:11:45.214Z,95.6222
2019-04-28T06:12:50.859Z,95.4391
2019-04-28T06:13:55.845Z,95.1934
2019-04-28T06:15:00.840Z,95.6146
2019-04-28T06:16:05.223Z,95.8434
2019-04-28T06:17:10.980Z,96.0906
2019-04-28T06:18:15.206Z,96.0815
2019-04-28T06:19:20.783Z,96.7163
2019-04-28T06:20:25.853Z,97.0504
2019-04-28T06:21:30.866Z,97.2839
2019-04-28T06:22:35.864Z,97.4456
2019-04-28T06:23:41.169Z,97.4166
2019-04-28T06:24:46.307Z,97.2854
2019-04-28T06:25:51.934Z,97.3907
2019-04-28T06:26:57.167Z,97.4945
2019-04-28T06:28:02.846Z,97.3526
2019-04-28T06:29:07.854Z,97.2152
2019-04-28T06:30:12.213Z,97.2808
2019-04-28T06:31:18.190Z,97.4487
2019-04-28T06:32:23.235Z,97.6654
2019-04-28T06:33:28.778Z,97.8103
2019-04-28T06:34:33.758Z,97.6196
2019-04-28T06:35:38.832Z,97.4395
2019-04-28T06:36:43.952Z,97.5463
2019-04-28T06:37:49.875Z,97.5723
2019-04-28T06:38:54.217Z,97.7020
2019-04-28T06:39:59.904Z,97.6837
2019-04-28T06:41:05.895Z,97.8561
2019-04-28T06:42:10.908Z,97.5860
2019-04-28T06:43:15.940Z,97.2717
2019-04-28T06:44:21.235Z,97.1878
2019-04-28T06:45:26.896Z,96.9635
2019-04-28T06:46:32.951Z,97.2992
2019-04-28T06:47:38.944Z,97.5494
2019-04-28T06:48:44.820Z,96.8917
2019-04-28T06:49:49.207Z,96.9650
2019-04-28T06:50:55.233Z,97.2076
2019-04-28T06:52:00.850Z,97.1099
2019-04-28T06:53:06.554Z,97.1328
2019-04-28T06:54:11.746Z,97.1649
2019-04-28T06:55:16.917Z,97.3678
2019-04-28T06:56:22.790Z,97.7005
2019-04-28T06:57:27.860Z,97.7707
2019-04-28T06:58:32.255Z,97.6730
2019-04-28T06:59:37.253Z,97.8973
2019-04-28T07:00:42.852Z,98.1460
2019-04-28T07:01:47.792Z,97.7508
2019-04-28T07:02:52.938Z,97.7523
2019-04-28T07:03:58.854Z,97.8851
2019-04-28T07:05:03.907Z,97.5555
2019-04-28T07:06:09.877Z,96.8780
2019-04-28T07:07:20.213Z,96.6171
2019-04-28T07:08:25.225Z,96.4828
2019-04-28T07:09:31.582Z,96.9589
2019-04-28T07:10:36.827Z,96.7849
2019-04-28T07:11:42.061Z,96.8536
2019-04-28T07:12:47.839Z,96.9909
2019-04-28T07:13:52.207Z,97.0794
2019-04-28T07:14:57.900Z,97.2671
2019-04-28T07:16:03.246Z,97.4319
2019-04-28T07:17:08.874Z,97.7432
2019-04-28T07:18:14.155Z,97.3541
2019-04-28T07:19:20.673Z,97.5418
2019-04-28T07:20:25.891Z,97.7569
2019-04-28T07:21:30.857Z,97.6501
2019-04-28T07:22:35.471Z,97.5814
2019-04-28T07:23:40.856Z,97.7142
2019-04-28T07:24:45.765Z,97.9431
2019-04-28T07:25:50.898Z,98.1460
2019-04-28T07:26:56.196Z,98.3093
2019-04-28T07:28:01.809Z,98.1369
2019-04-28T07:29:06.831Z,98.1170
2019-04-28T07:30:11.226Z,98.4024
2019-04-28T07:31:16.874Z,98.6343
2019-04-28T07:32:21.998Z,98.8006
2019-04-28T07:33:35.766Z,98.7778
2019-04-28T07:34:37.833Z,98.6847
2019-04-28T07:35:42.228Z,98.3703
2019-04-28T07:36:47.889Z,98.4237
2019-04-28T07:37:54.119Z,98.3459
2019-04-28T07:38:58.868Z,98.3230
2019-04-28T07:40:03.916Z,98.2544
2019-04-28T07:41:09.862Z,98.3734
2019-04-28T07:42:14.826Z,98.5077
2019-04-28T07:43:18.683Z,98.5168
2019-04-28T07:44:23.229Z,98.5473
2019-04-28T07:45:28.209Z,98.4070
2019-04-28T07:46:33.227Z,98.5840
2019-04-28T07:47:38.827Z,98.6267
2019-04-28T07:48:43.920Z,98.3520
2019-04-28T07:49:49.221Z,98.2696
2019-04-28T07:50:54.814Z,98.4146
2019-04-28T07:51:59.888Z,98.3597
2019-04-28T07:53:05.838Z,97.5097
2019-04-28T07:54:11.051Z,96.9787
2019-04-28T07:55:16.884Z,97.1969
2019-04-28T07:56:22.849Z,96.9146
2019-04-28T07:57:28.050Z,97.3724
2019-04-28T07:58:34.235Z,96.9604
2019-04-28T07:59:39.864Z,96.8719
2019-04-28T08:00:45.390Z,97.0871
2019-04-28T08:01:51.566Z,96.7544
2019-04-28T08:02:56.245Z,94.8257
2019-04-28T08:04:03.057Z,96.1044
2019-04-28T08:05:08.778Z,94.9142
2019-04-28T08:06:13.826Z,95.6970
2019-04-28T08:07:18.829Z,95.9380
2019-04-28T08:08:23.822Z,95.8694
2019-04-28T08:09:28.489Z,95.7702
2019-04-28T08:10:33.836Z,95.9899
2019-04-28T08:11:38.877Z,95.2850
2019-04-28T08:12:43.740Z,95.8709
2019-04-28T08:13:48.867Z,94.8501
2019-04-28T08:14:54.919Z,94.5052
2019-04-28T08:16:00.802Z,93.5409
2019-04-28T08:17:05.919Z,94.8821
2019-04-28T08:18:11.201Z,94.4610
2019-04-28T08:19:17.162Z,93.1456
2019-04-28T08:20:22.849Z,93.0144
2019-04-28T08:21:27.212Z,91.5404
2019-04-28T08:22:32.883Z,92.9641
2019-04-28T08:23:47.079Z,91.3283
2019-04-28T08:24:49.845Z,92.2911
2019-04-28T08:25:54.837Z,89.4789
2019-04-28T08:27:00.367Z,88.1972
2019-04-28T08:28:05.856Z,90.3365
2019-04-28T08:29:10.947Z,89.4759
2019-04-28T08:30:16.786Z,88.9265
2019-04-28T08:31:21.895Z,89.7536
2019-04-28T08:32:27.834Z,91.0307
2019-04-28T08:33:33.989Z,90.9636
2019-04-28T08:34:39.885Z,88.1621
2019-04-28T08:35:45.776Z,87.9515
2019-04-28T08:36:50.819Z,85.6474
2019-04-28T08:37:55.214Z,87.0405
2019-04-28T08:39:00.224Z,84.3442
2019-04-28T08:40:05.885Z,87.3732
2019-04-28T08:41:11.237Z,87.9332
2019-04-28T08:42:16.232Z,87.8309
2019-04-28T08:43:22.064Z,87.8096
2019-04-28T08:44:27.850Z,84.3244
2019-04-28T08:45:32.862Z,81.0941
2019-04-28T08:46:37.208Z,83.5554
2019-04-28T08:47:42.885Z,88.5725
2019-04-28T08:48:48.898Z,85.4276
2019-04-28T08:49:54.049Z,84.1505
2019-04-28T08:51:00.005Z,83.7797
2019-04-28T08:52:06.076Z,87.7455
2019-04-28T08:53:13.974Z,84.4938
2019-04-28T08:54:19.886Z,81.9165
2019-04-28T08:55:24.241Z,83.4699
2019-04-28T08:56:28.259Z,81.9257
2019-04-28T08:57:33.843Z,82.7909
2019-04-28T08:58:38.762Z,81.3550
2019-04-28T08:59:43.882Z,83.3555
2019-04-28T09:00:49.231Z,79.4415
2019-04-28T09:01:54.931Z,81.1307
2019-04-28T09:03:00.241Z,84.1276
2019-04-28T09:04:15.194Z,81.9318
2019-04-28T09:05:15.831Z,79.6185
2019-04-28T09:06:21.230Z,83.8590
2019-04-28T09:07:26.860Z,80.6409
2019-04-28T09:08:32.510Z,81.7929
2019-04-28T09:09:37.836Z,78.5016
2019-04-28T09:10:43.865Z,81.5290
2019-04-28T09:11:49.176Z,79.1379
2019-04-28T09:12:54.222Z,75.4803
2019-04-28T09:14:00.208Z,77.2290
2019-04-28T09:15:05.223Z,79.1669
2019-04-28T09:16:10.789Z,78.3230
2019-04-28T09:17:15.900Z,78.9639
2019-04-28T09:18:21.766Z,82.5681
2019-04-28T09:19:26.925Z,79.7742
2019-04-28T09:20:32.163Z,81.6831
2019-04-28T09:21:36.231Z,82.1912
2019-04-28T09:22:41.903Z,83.9033
2019-04-28T09:23:47.237Z,80.1724
2019-04-28T09:24:52.961Z,79.1119
2019-04-28T09:25:58.833Z,81.9593
2019-04-28T09:27:03.969Z,80.0305
2019-04-28T09:28:09.811Z,77.3617
2019-04-28T09:29:14.829Z,77.3709
2019-04-28T09:30:19.892Z,75.9426
2019-04-28T09:31:23.913Z,74.5739
2019-04-28T09:32:29.212Z,75.1568
2019-04-28T09:33:34.796Z,78.0713
2019-04-28T09:34:39.223Z,75.4955
2019-04-28T09:35:44.779Z,75.1049
2019-04-28T09:36:49.971Z,73.6431
2019-04-28T09:38:31.725Z,75.8480
2019-04-28T09:39:36.825Z,77.6059
2019-04-28T09:40:40.224Z,78.4619
2019-04-28T09:41:45.493Z,78.7594
2019-04-28T09:42:50.226Z,77.1969
2019-04-28T09:43:55.899Z,81.3596
2019-04-28T09:45:01.861Z,81.8173
2019-04-28T09:46:06.854Z,82.9435
2019-04-28T09:47:17.772Z,81.4450
2019-04-28T09:48:22.934Z,84.2939
2019-04-28T09:49:28.832Z,82.0081
2019-04-28T09:50:33.854Z,84.7593
2019-04-28T09:51:53.396Z,82.3255
2019-04-28T09:52:57.681Z,84.3427
2019-04-28T09:54:02.850Z,82.0966
2019-04-28T09:55:07.228Z,77.2580
2019-04-28T09:56:12.994Z,78.4283
2019-04-28T09:57:18.765Z,77.7523
2019-04-28T09:58:23.805Z,79.5331
2019-04-28T09:59:29.821Z,77.2854
2019-04-28T10:00:35.013Z,77.3953
2019-04-28T10:01:40.873Z,76.8582
2019-04-28T10:02:46.864Z,79.5468
2019-04-28T10:03:51.823Z,76.5988
2019-04-28T10:04:57.790Z,76.4569
2019-04-28T10:06:02.936Z,76.6064
2019-04-28T10:07:08.228Z,77.8668
2019-04-28T10:08:13.889Z,79.0204
2019-04-28T10:09:18.903Z,75.4299
2019-04-28T10:10:24.756Z,79.7787
2019-04-28T10:11:30.844Z,74.8394
2019-04-28T10:12:36.217Z,78.2101
2019-04-28T10:13:41.996Z,77.7920
2019-04-28T10:14:47.875Z,74.1466
2019-04-28T10:15:52.829Z,69.5918
2019-04-28T10:16:57.825Z,72.4681
2019-04-28T10:18:08.766Z,71.9509
2019-04-28T10:19:13.905Z,72.5261
2019-04-28T10:20:19.214Z,75.5138
2019-04-28T10:21:24.850Z,73.5790
2019-04-28T10:22:51.971Z,73.8552
2019-04-28T10:23:57.207Z,69.6941
2019-04-28T10:25:03.211Z,70.8339
2019-04-28T10:26:08.764Z,71.6258
2019-04-28T10:27:13.811Z,78.6954
2019-04-28T10:28:24.771Z,72.7275
2019-04-28T10:29:32.799Z,75.3475
2019-04-28T10:30:38.900Z,74.6929
2019-04-28T10:31:45.420Z,72.6833
2019-04-28T10:32:57.861Z,73.4142
2019-04-28T10:34:02.873Z,72.0684
2019-04-28T10:35:08.344Z,72.0272
2019-04-28T10:36:13.938Z,75.1888
2019-04-28T10:37:19.795Z,75.5032
2019-04-28T10:38:24.778Z,72.2332
2019-04-28T10:39:35.770Z,71.8502
2019-04-28T10:40:40.873Z,71.5160
2019-04-28T10:41:46.102Z,75.5734
2019-04-28T10:42:52.051Z,71.2825
2019-04-28T10:43:57.796Z,73.8964
2019-04-28T10:45:08.769Z,76.0128
2019-04-28T10:46:13.853Z,74.0093
2019-04-28T10:47:18.835Z,71.3512
2019-04-28T10:48:23.771Z,73.2601
2019-04-28T10:49:28.866Z,72.7932
2019-04-28T10:50:34.184Z,74.1237
2019-04-28T10:51:39.849Z,73.7774
2019-04-28T10:52:44.225Z,70.0954
2019-04-28T10:53:50.429Z,75.0591
2019-04-28T10:54:58.774Z,71.8761
2019-04-28T10:56:03.941Z,73.0449
2019-04-28T10:57:09.859Z,70.0404
2019-04-28T10:58:14.960Z,71.3542
2019-04-28T10:59:20.221Z,70.4356
2019-04-28T11:00:26.160Z,72.3766
2019-04-28T11:01:31.979Z,72.6879
2019-04-28T11:02:38.588Z,68.9189
2019-04-28T11:03:43.819Z,69.7154
2019-04-28T11:04:48.989Z,70.1183
2019-04-28T11:05:55.184Z,69.0974
2019-04-28T11:07:00.889Z,71.2505
2019-04-28T11:08:06.564Z,70.9514
2019-04-28T11:09:11.900Z,70.1152
2019-04-28T11:10:17.228Z,71.0719
2019-04-28T11:11:22.906Z,69.1676
2019-04-28T11:12:28.836Z,69.7749
2019-04-28T11:13:33.200Z,70.5501
2019-04-28T11:14:56.865Z,70.6828
2019-04-28T11:16:01.808Z,69.7704
2019-04-28T11:17:06.896Z,68.2094
2019-04-28T11:18:12.856Z,66.8101
2019-04-28T11:19:17.902Z,67.1077
2019-04-28T11:20:25.255Z,67.8477
2019-04-28T11:21:31.398Z,69.4041
2019-04-28T11:22:36.756Z,69.0440
2019-04-28T11:23:41.237Z,65.9129
2019-04-28T11:24:46.883Z,65.3574
2019-04-28T11:25:50.836Z,65.7237
2019-04-28T11:26:55.214Z,67.8904
2019-04-28T11:28:00.774Z,64.0391
2019-04-28T11:29:05.913Z,64.8554
2019-04-28T11:30:10.757Z,66.2364
2019-04-28T11:31:15.871Z,65.1484
2019-04-28T11:32:20.893Z,66.7811
2019-04-28T11:33:26.993Z,67.5517
2019-04-28T11:34:32.921Z,65.5283
2019-04-28T11:35:38.218Z,67.1580
2019-04-28T11:36:43.940Z,68.2200
2019-04-28T11:37:49.808Z,69.1081
2019-04-28T11:38:54.870Z,69.0669
2019-04-28T11:39:59.833Z,66.4012
2019-04-28T11:41:04.674Z,66.3523
2019-04-28T11:42:10.339Z,68.4031
2019-04-28T11:43:15.226Z,69.6345
2019-04-28T11:44:20.214Z,71.0216
2019-04-28T11:45:26.356Z,72.3537
2019-04-28T11:46:31.792Z,68.0079
2019-04-28T11:47:36.827Z,69.1981
2019-04-28T11:48:41.866Z,70.7057
2019-04-28T11:49:46.235Z,67.5792
2019-04-28T11:50:51.875Z,68.5161
2019-04-28T11:51:56.913Z,68.3299
2019-04-28T11:53:02.817Z,64.6861
2019-04-28T11:54:07.903Z,65.7069
2019-04-28T11:55:13.519Z,63.9353
2019-04-28T11:56:18.991Z,63.2654
2019-04-28T11:57:24.895Z,67.5242
2019-04-28T11:58:31.266Z,68.4535
2019-04-28T11:59:37.115Z,63.6881
2019-04-28T12:00:44.979Z,68.4932
2019-04-28T12:01:50.647Z,67.1443
2019-04-28T12:02:55.307Z,63.4348
2019-04-28T12:04:01.406Z,65.2064
2019-04-28T12:05:06.887Z,65.0004
2019-04-28T12:06:12.851Z,65.7938
2019-04-28T12:07:17.810Z,64.7715
2019-04-28T12:08:23.122Z,67.4632
2019-04-28T12:09:29.093Z,65.3300
2019-04-28T12:10:34.952Z,59.7147
2019-04-28T12:11:40.909Z,62.3652
2019-04-28T12:12:47.166Z,63.6774
2019-04-28T12:13:52.880Z,63.7980
2019-04-28T12:14:57.933Z,64.8051
2019-04-28T12:16:03.828Z,62.3148
2019-04-28T12:17:08.294Z,63.0289
2019-04-28T12:18:14.942Z,67.2984
2019-04-28T12:19:20.955Z,67.5959
2019-04-28T12:20:27.204Z,67.1427
2019-04-28T12:21:32.822Z,57.6226
2019-04-28T12:22:37.779Z,66.0548
2019-04-28T12:23:42.400Z,61.7044
2019-04-28T12:24:47.936Z,60.2991
2019-04-28T12:25:53.909Z,65.6321
2019-04-28T12:26:59.832Z,66.2684
2019-04-28T12:28:04.849Z,66.5629
2019-04-28T12:29:10.234Z,66.7735
2019-04-28T12:30:15.913Z,67.1855
2019-04-28T12:31:22.836Z,63.9155
2019-04-28T12:32:27.846Z,66.5385
2019-04-28T12:33:32.981Z,63.8697
2019-04-28T12:34:38.879Z,65.6931
2019-04-28T12:35:48.084Z,65.2750
2019-04-28T12:36:53.284Z,64.4785
2019-04-28T12:37:58.772Z,68.6076
2019-04-28T12:39:03.772Z,69.5094
2019-04-28T12:40:09.202Z,67.8538
2019-04-28T12:41:14.808Z,68.6397
2019-04-28T12:42:20.129Z,69.2714
2019-04-28T12:43:26.115Z,67.0054
2019-04-28T12:44:31.202Z,67.5883
2019-04-28T12:45:36.915Z,68.0720
2019-04-28T12:46:42.992Z,69.9535
2019-04-28T12:47:49.164Z,71.9448
2019-04-28T12:48:55.155Z,73.4066
2019-04-28T12:50:00.958Z,73.5882
2019-04-28T12:51:09.930Z,74.0093
2019-04-28T12:52:15.818Z,76.0296
2019-04-28T12:53:20.850Z,75.3018
2019-04-28T12:54:25.235Z,78.7625
2019-04-28T12:55:30.849Z,78.4649
2019-04-28T12:56:37.031Z,78.8464
2019-04-28T12:57:43.014Z,74.9126
2019-04-28T12:58:48.824Z,76.7895
2019-04-28T12:59:53.290Z,79.0738
2019-04-28T13:00:58.903Z,79.8718
2019-04-28T13:02:04.847Z,79.7284
2019-04-28T13:03:09.443Z,78.5199
2019-04-28T13:04:17.851Z,79.2905
2019-04-28T13:05:22.842Z,77.6150
2019-04-28T13:06:27.798Z,80.2792
2019-04-28T13:07:32.846Z,79.0570
2019-04-28T13:08:37.853Z,79.2584
2019-04-28T13:09:42.873Z,79.5331
2019-04-28T13:10:48.320Z,79.7833
2019-04-28T13:11:53.249Z,78.1857
2019-04-28T13:12:58.849Z,78.7762
2019-04-28T13:14:04.817Z,78.4833
2019-04-28T13:15:09.783Z,78.3703
2019-04-28T13:16:14.806Z,77.0382